sensor_id;sensor_type;location;lat;lon;timestamp;temperature;humidity
10089;DHT22;51898;49.864;8.550;2022-07-24T00:01:52;21.00;99.90
10089;DHT22;51898;49.864;8.550;2022-07-24T00:04:53;21.00;99.90
10089;DHT22;51898;49.864;8.550;2022-07-24T00:07:58;20.90;99.90
10089;DHT22;51898;49.864;8.550;2022-07-24T00:11:00;20.80;99.90
10089;DHT22;51898;49.864;8.550;2022-07-24T00:14:02;20.80;99.90
10089;DHT22;51898;49.864;8.550;2022-07-24T00:17:04;20.80;99.90
10089;DHT22;51898;49.864;8.550;2022-07-24T00:20:07;20.70;99.90
10089;DHT22;51898;49.864;8.550;2022-07-24T00:23:09;20.80;99.90
10089;DHT22;51898;49.864;8.550;2022-07-24T00:26:12;20.80;99.90
10089;DHT22;51898;49.864;8.550;2022-07-24T00:29:14;20.70;99.90
10089;DHT22;51898;49.864;8.550;2022-07-24T00:32:15;20.70;99.90
10089;DHT22;51898;49.864;8.550;2022-07-24T00:35:17;20.70;99.90
10089;DHT22;51898;49.864;8.550;2022-07-24T00:38:19;20.70;99.90
10089;DHT22;51898;49.864;8.550;2022-07-24T00:41:21;20.70;99.90
10089;DHT22;51898;49.864;8.550;2022-07-24T00:44:23;20.60;99.90
10089;DHT22;51898;49.864;8.550;2022-07-24T00:47:24;20.60;99.90
10089;DHT22;51898;49.864;8.550;2022-07-24T00:50:26;20.50;99.90
10089;DHT22;51898;49.864;8.550;2022-07-24T00:53:29;20.40;99.90
10089;DHT22;51898;49.864;8.550;2022-07-24T00:56:31;20.40;99.90
10089;DHT22;51898;49.864;8.550;2022-07-24T00:59:32;20.40;99.90
10089;DHT22;51898;49.864;8.550;2022-07-24T01:02:34;20.40;99.90
10089;DHT22;51898;49.864;8.550;2022-07-24T01:05:36;20.30;99.90
10089;DHT22;51898;49.864;8.550;2022-07-24T01:08:38;20.30;99.90
10089;DHT22;51898;49.864;8.550;2022-07-24T01:11:40;20.20;99.90
10089;DHT22;51898;49.864;8.550;2022-07-24T01:14:42;20.20;99.90
10089;DHT22;51898;49.864;8.550;2022-07-24T01:17:43;20.10;99.90
10089;DHT22;51898;49.864;8.550;2022-07-24T01:20:46;20.10;99.90
10089;DHT22;51898;49.864;8.550;2022-07-24T01:23:48;20.10;99.90
10089;DHT22;51898;49.864;8.550;2022-07-24T01:26:50;20.00;99.90
10089;DHT22;51898;49.864;8.550;2022-07-24T01:29:52;20.00;99.90
10089;DHT22;51898;49.864;8.550;2022-07-24T01:32:54;19.90;99.90
10089;DHT22;51898;49.864;8.550;2022-07-24T01:35:55;19.90;99.90
10089;DHT22;51898;49.864;8.550;2022-07-24T01:38:58;19.90;99.90
10089;DHT22;51898;49.864;8.550;2022-07-24T01:41:59;19.90;99.90
10089;DHT22;51898;49.864;8.550;2022-07-24T01:45:01;19.80;99.90
10089;DHT22;51898;49.864;8.550;2022-07-24T01:48:03;19.80;99.90
10089;DHT22;51898;49.864;8.550;2022-07-24T01:51:05;19.70;99.90
10089;DHT22;51898;49.864;8.550;2022-07-24T01:54:07;19.70;99.90
10089;DHT22;51898;49.864;8.550;2022-07-24T01:57:08;19.60;99.90
10089;DHT22;51898;49.864;8.550;2022-07-24T02:00:10;19.60;99.90
10089;DHT22;51898;49.864;8.550;2022-07-24T02:03:16;19.50;99.90
10089;DHT22;51898;49.864;8.550;2022-07-24T02:06:17;19.50;99.90
10089;DHT22;51898;49.864;8.550;2022-07-24T02:09:19;19.50;99.90
10089;DHT22;51898;49.864;8.550;2022-07-24T02:12:21;19.40;99.90
10089;DHT22;51898;49.864;8.550;2022-07-24T02:15:24;19.40;99.90
10089;DHT22;51898;49.864;8.550;2022-07-24T02:18:25;19.40;99.90
10089;DHT22;51898;49.864;8.550;2022-07-24T02:21:27;19.30;99.90
10089;DHT22;51898;49.864;8.550;2022-07-24T02:24:29;19.30;99.90
10089;DHT22;51898;49.864;8.550;2022-07-24T02:27:31;19.20;99.90
10089;DHT22;51898;49.864;8.550;2022-07-24T02:30:33;19.20;99.90
10089;DHT22;51898;49.864;8.550;2022-07-24T02:33:34;19.10;99.90
10089;DHT22;51898;49.864;8.550;2022-07-24T02:36:36;19.10;99.90
10089;DHT22;51898;49.864;8.550;2022-07-24T02:39:38;19.00;99.90
10089;DHT22;51898;49.864;8.550;2022-07-24T02:42:39;19.00;99.90
10089;DHT22;51898;49.864;8.550;2022-07-24T02:45:41;19.00;99.90
10089;DHT22;51898;49.864;8.550;2022-07-24T02:48:43;19.00;99.90
10089;DHT22;51898;49.864;8.550;2022-07-24T02:51:45;19.00;99.90
10089;DHT22;51898;49.864;8.550;2022-07-24T02:54:46;19.00;99.90
10089;DHT22;51898;49.864;8.550;2022-07-24T02:57:48;18.90;99.90
10089;DHT22;51898;49.864;8.550;2022-07-24T03:00:49;18.90;99.90
10089;DHT22;51898;49.864;8.550;2022-07-24T03:03:51;18.90;99.90
10089;DHT22;51898;49.864;8.550;2022-07-24T03:06:53;18.90;99.90
10089;DHT22;51898;49.864;8.550;2022-07-24T03:09:55;18.80;99.90
10089;DHT22;51898;49.864;8.550;2022-07-24T03:12:57;18.80;99.90
10089;DHT22;51898;49.864;8.550;2022-07-24T03:15:58;18.80;99.90
10089;DHT22;51898;49.864;8.550;2022-07-24T03:19:00;18.70;99.90
10089;DHT22;51898;49.864;8.550;2022-07-24T03:22:02;18.70;99.90
10089;DHT22;51898;49.864;8.550;2022-07-24T03:25:04;18.70;99.90
10089;DHT22;51898;49.864;8.550;2022-07-24T03:28:06;18.60;99.90
10089;DHT22;51898;49.864;8.550;2022-07-24T03:31:08;18.60;99.90
10089;DHT22;51898;49.864;8.550;2022-07-24T03:34:09;18.50;99.90
10089;DHT22;51898;49.864;8.550;2022-07-24T03:37:11;18.50;99.90
10089;DHT22;51898;49.864;8.550;2022-07-24T03:40:13;18.40;99.90
10089;DHT22;51898;49.864;8.550;2022-07-24T03:43:14;18.40;99.90
10089;DHT22;51898;49.864;8.550;2022-07-24T03:46:16;18.40;99.90
10089;DHT22;51898;49.864;8.550;2022-07-24T03:49:18;18.30;99.90
10089;DHT22;51898;49.864;8.550;2022-07-24T03:52:20;18.30;99.90
10089;DHT22;51898;49.864;8.550;2022-07-24T03:55:24;18.30;99.90
10089;DHT22;51898;49.864;8.550;2022-07-24T03:58:26;18.30;99.90
10089;DHT22;51898;49.864;8.550;2022-07-24T04:01:28;18.40;99.90
10089;DHT22;51898;49.864;8.550;2022-07-24T04:04:29;18.40;99.90
10089;DHT22;51898;49.864;8.550;2022-07-24T04:07:31;18.40;99.90
10089;DHT22;51898;49.864;8.550;2022-07-24T04:10:33;18.40;99.90
10089;DHT22;51898;49.864;8.550;2022-07-24T04:13:34;18.50;99.90
10089;DHT22;51898;49.864;8.550;2022-07-24T04:16:43;18.50;99.90
10089;DHT22;51898;49.864;8.550;2022-07-24T04:19:45;18.40;99.90
10089;DHT22;51898;49.864;8.550;2022-07-24T04:22:46;18.50;99.90
10089;DHT22;51898;49.864;8.550;2022-07-24T04:25:49;18.50;99.90
10089;DHT22;51898;49.864;8.550;2022-07-24T04:28:50;18.60;99.90
10089;DHT22;51898;49.864;8.550;2022-07-24T04:31:52;18.60;99.90
10089;DHT22;51898;49.864;8.550;2022-07-24T04:34:54;18.70;99.90
10089;DHT22;51898;49.864;8.550;2022-07-24T04:37:55;18.80;99.90
10089;DHT22;51898;49.864;8.550;2022-07-24T04:40:57;18.80;99.90
10089;DHT22;51898;49.864;8.550;2022-07-24T04:43:59;18.80;99.90
10089;DHT22;51898;49.864;8.550;2022-07-24T04:47:00;19.00;99.90
10089;DHT22;51898;49.864;8.550;2022-07-24T04:50:03;19.20;99.90
10089;DHT22;51898;49.864;8.550;2022-07-24T04:53:05;19.40;99.90
10089;DHT22;51898;49.864;8.550;2022-07-24T04:56:07;19.70;99.90
10089;DHT22;51898;49.864;8.550;2022-07-24T04:59:09;19.80;99.90
10089;DHT22;51898;49.864;8.550;2022-07-24T05:02:10;20.00;99.90
10089;DHT22;51898;49.864;8.550;2022-07-24T05:05:12;20.00;99.90
10089;DHT22;51898;49.864;8.550;2022-07-24T05:08:14;20.10;99.90
10089;DHT22;51898;49.864;8.550;2022-07-24T05:11:16;20.00;99.90
10089;DHT22;51898;49.864;8.550;2022-07-24T05:14:17;20.10;99.90
10089;DHT22;51898;49.864;8.550;2022-07-24T05:17:20;20.20;99.90
10089;DHT22;51898;49.864;8.550;2022-07-24T05:20:21;20.20;99.90
10089;DHT22;51898;49.864;8.550;2022-07-24T05:23:23;20.30;99.90
10089;DHT22;51898;49.864;8.550;2022-07-24T05:26:25;20.30;99.90
10089;DHT22;51898;49.864;8.550;2022-07-24T05:29:27;20.50;99.90
10089;DHT22;51898;49.864;8.550;2022-07-24T05:32:28;20.70;99.90
10089;DHT22;51898;49.864;8.550;2022-07-24T05:35:30;20.70;99.90
10089;DHT22;51898;49.864;8.550;2022-07-24T05:38:32;20.80;99.90
10089;DHT22;51898;49.864;8.550;2022-07-24T05:41:33;20.80;99.90
10089;DHT22;51898;49.864;8.550;2022-07-24T05:44:35;20.90;99.90
10089;DHT22;51898;49.864;8.550;2022-07-24T05:47:39;20.90;99.90
10089;DHT22;51898;49.864;8.550;2022-07-24T05:50:41;20.90;99.90
10089;DHT22;51898;49.864;8.550;2022-07-24T05:53:42;20.90;99.90
10089;DHT22;51898;49.864;8.550;2022-07-24T05:56:44;21.10;99.90
10089;DHT22;51898;49.864;8.550;2022-07-24T05:59:45;21.10;99.90
10089;DHT22;51898;49.864;8.550;2022-07-24T06:02:48;21.10;99.90
10089;DHT22;51898;49.864;8.550;2022-07-24T06:05:49;21.20;99.90
10089;DHT22;51898;49.864;8.550;2022-07-24T06:08:51;21.30;99.90
10089;DHT22;51898;49.864;8.550;2022-07-24T06:11:52;21.30;99.90
10089;DHT22;51898;49.864;8.550;2022-07-24T06:14:54;21.50;99.90
10089;DHT22;51898;49.864;8.550;2022-07-24T06:17:56;21.80;99.90
10089;DHT22;51898;49.864;8.550;2022-07-24T06:20:58;22.10;99.90
10089;DHT22;51898;49.864;8.550;2022-07-24T06:23:59;22.10;99.90
10089;DHT22;51898;49.864;8.550;2022-07-24T06:27:01;22.30;99.90
10089;DHT22;51898;49.864;8.550;2022-07-24T06:30:18;22.60;99.90
10089;DHT22;51898;49.864;8.550;2022-07-24T06:33:20;22.70;99.90
10089;DHT22;51898;49.864;8.550;2022-07-24T06:36:22;22.90;99.90
10089;DHT22;51898;49.864;8.550;2022-07-24T06:39:23;22.90;99.90
10089;DHT22;51898;49.864;8.550;2022-07-24T06:42:25;23.10;99.90
10089;DHT22;51898;49.864;8.550;2022-07-24T06:45:26;23.10;99.90
10089;DHT22;51898;49.864;8.550;2022-07-24T06:48:29;23.20;99.90
10089;DHT22;51898;49.864;8.550;2022-07-24T06:51:31;23.20;99.90
10089;DHT22;51898;49.864;8.550;2022-07-24T06:54:33;23.50;99.90
10089;DHT22;51898;49.864;8.550;2022-07-24T06:57:35;23.80;99.90
10089;DHT22;51898;49.864;8.550;2022-07-24T07:00:36;23.70;99.90
10089;DHT22;51898;49.864;8.550;2022-07-24T07:03:38;23.80;99.90
10089;DHT22;51898;49.864;8.550;2022-07-24T07:06:40;23.80;99.90
10089;DHT22;51898;49.864;8.550;2022-07-24T07:09:44;23.90;99.90
10089;DHT22;51898;49.864;8.550;2022-07-24T07:12:46;24.10;99.90
10089;DHT22;51898;49.864;8.550;2022-07-24T07:15:48;24.40;99.90
10089;DHT22;51898;49.864;8.550;2022-07-24T07:18:50;24.70;99.90
10089;DHT22;51898;49.864;8.550;2022-07-24T07:21:51;25.00;99.90
10089;DHT22;51898;49.864;8.550;2022-07-24T07:24:53;25.40;99.90
10089;DHT22;51898;49.864;8.550;2022-07-24T07:27:55;25.70;99.90
10089;DHT22;51898;49.864;8.550;2022-07-24T07:30:56;26.00;99.90
10089;DHT22;51898;49.864;8.550;2022-07-24T07:33:58;26.30;99.90
10089;DHT22;51898;49.864;8.550;2022-07-24T07:37:00;26.50;99.90
10089;DHT22;51898;49.864;8.550;2022-07-24T07:40:02;26.70;99.90
10089;DHT22;51898;49.864;8.550;2022-07-24T07:43:04;26.70;99.90
10089;DHT22;51898;49.864;8.550;2022-07-24T07:46:06;26.50;99.90
10089;DHT22;51898;49.864;8.550;2022-07-24T07:49:08;26.50;99.90
10089;DHT22;51898;49.864;8.550;2022-07-24T07:52:11;26.50;99.90
10089;DHT22;51898;49.864;8.550;2022-07-24T07:55:12;26.60;99.90
10089;DHT22;51898;49.864;8.550;2022-07-24T07:58:14;26.50;99.90
10089;DHT22;51898;49.864;8.550;2022-07-24T08:01:16;26.50;99.90
10089;DHT22;51898;49.864;8.550;2022-07-24T08:04:18;26.70;99.90
10089;DHT22;51898;49.864;8.550;2022-07-24T08:07:20;27.00;99.90
10089;DHT22;51898;49.864;8.550;2022-07-24T08:10:23;27.20;99.90
10089;DHT22;51898;49.864;8.550;2022-07-24T08:13:25;26.90;99.90
10089;DHT22;51898;49.864;8.550;2022-07-24T08:16:27;27.00;99.90
10089;DHT22;51898;49.864;8.550;2022-07-24T08:19:29;27.00;99.90
10089;DHT22;51898;49.864;8.550;2022-07-24T08:22:31;26.90;99.90
10089;DHT22;51898;49.864;8.550;2022-07-24T08:25:32;27.00;99.90
10089;DHT22;51898;49.864;8.550;2022-07-24T08:28:34;27.10;99.90
10089;DHT22;51898;49.864;8.550;2022-07-24T08:31:36;27.20;99.90
10089;DHT22;51898;49.864;8.550;2022-07-24T08:34:37;27.50;99.90
10089;DHT22;51898;49.864;8.550;2022-07-24T08:37:40;27.60;99.90
10089;DHT22;51898;49.864;8.550;2022-07-24T08:40:42;27.70;99.90
10089;DHT22;51898;49.864;8.550;2022-07-24T08:43:43;27.90;99.90
10089;DHT22;51898;49.864;8.550;2022-07-24T08:46:45;28.10;99.90
10089;DHT22;51898;49.864;8.550;2022-07-24T08:49:48;28.20;99.90
10089;DHT22;51898;49.864;8.550;2022-07-24T08:52:55;28.40;99.90
10089;DHT22;51898;49.864;8.550;2022-07-24T08:55:58;28.60;99.90
10089;DHT22;51898;49.864;8.550;2022-07-24T08:59:00;28.60;99.90
10089;DHT22;51898;49.864;8.550;2022-07-24T09:02:02;28.60;99.30
10089;DHT22;51898;49.864;8.550;2022-07-24T09:05:04;28.40;99.70
10089;DHT22;51898;49.864;8.550;2022-07-24T09:08:10;28.40;99.10
10089;DHT22;51898;49.864;8.550;2022-07-24T09:11:12;28.50;98.60
10089;DHT22;51898;49.864;8.550;2022-07-24T09:14:29;28.60;98.00
10089;DHT22;51898;49.864;8.550;2022-07-24T09:17:31;28.60;98.20
10089;DHT22;51898;49.864;8.550;2022-07-24T09:20:37;28.60;97.80
10089;DHT22;51898;49.864;8.550;2022-07-24T09:23:40;28.60;97.10
10089;DHT22;51898;49.864;8.550;2022-07-24T09:26:46;28.60;97.10
10089;DHT22;51898;49.864;8.550;2022-07-24T09:29:51;28.50;96.40
10089;DHT22;51898;49.864;8.550;2022-07-24T09:32:57;28.70;96.60
10089;DHT22;51898;49.864;8.550;2022-07-24T09:35:59;28.80;95.60
10089;DHT22;51898;49.864;8.550;2022-07-24T09:39:02;28.90;95.60
10089;DHT22;51898;49.864;8.550;2022-07-24T09:42:06;29.00;95.30
10089;DHT22;51898;49.864;8.550;2022-07-24T09:45:08;29.10;94.50
10089;DHT22;51898;49.864;8.550;2022-07-24T09:48:13;29.20;94.40
10089;DHT22;51898;49.864;8.550;2022-07-24T09:51:16;29.40;93.30
10089;DHT22;51898;49.864;8.550;2022-07-24T09:54:29;29.40;94.20
10089;DHT22;51898;49.864;8.550;2022-07-24T09:57:32;29.10;93.90
10089;DHT22;51898;49.864;8.550;2022-07-24T10:00:34;29.20;94.10
10089;DHT22;51898;49.864;8.550;2022-07-24T10:03:38;29.40;94.50
10089;DHT22;51898;49.864;8.550;2022-07-24T10:06:43;29.40;94.30
10089;DHT22;51898;49.864;8.550;2022-07-24T10:09:49;29.40;93.10
10089;DHT22;51898;49.864;8.550;2022-07-24T10:12:51;29.50;92.50
10089;DHT22;51898;49.864;8.550;2022-07-24T10:19:05;29.80;91.70
10089;DHT22;51898;49.864;8.550;2022-07-24T10:22:22;30.10;91.80
10089;DHT22;51898;49.864;8.550;2022-07-24T10:25:25;30.10;91.80
10089;DHT22;51898;49.864;8.550;2022-07-24T10:28:53;30.00;91.00
10089;DHT22;51898;49.864;8.550;2022-07-24T10:31:59;30.20;91.20
10089;DHT22;51898;49.864;8.550;2022-07-24T10:35:16;30.40;90.00
10089;DHT22;51898;49.864;8.550;2022-07-24T10:38:29;30.10;89.10
10089;DHT22;51898;49.864;8.550;2022-07-24T10:41:34;30.30;90.10
10089;DHT22;51898;49.864;8.550;2022-07-24T10:44:35;30.40;88.60
10089;DHT22;51898;49.864;8.550;2022-07-24T10:47:38;30.60;86.60
10089;DHT22;51898;49.864;8.550;2022-07-24T10:54:02;30.60;86.30
10089;DHT22;51898;49.864;8.550;2022-07-24T10:57:18;30.50;88.70
10089;DHT22;51898;49.864;8.550;2022-07-24T11:00:37;30.30;88.40
10089;DHT22;51898;49.864;8.550;2022-07-24T11:03:49;30.40;87.40
10089;DHT22;51898;49.864;8.550;2022-07-24T11:06:53;30.40;88.10
10089;DHT22;51898;49.864;8.550;2022-07-24T11:10:00;30.60;87.40
10089;DHT22;51898;49.864;8.550;2022-07-24T11:13:02;30.80;86.70
10089;DHT22;51898;49.864;8.550;2022-07-24T11:22:37;31.00;84.70
10089;DHT22;51898;49.864;8.550;2022-07-24T11:25:39;30.90;84.30
10089;DHT22;51898;49.864;8.550;2022-07-24T11:28:41;31.00;83.70
10089;DHT22;51898;49.864;8.550;2022-07-24T11:31:48;31.20;83.40
10089;DHT22;51898;49.864;8.550;2022-07-24T11:34:51;31.10;81.60
10089;DHT22;51898;49.864;8.550;2022-07-24T11:37:53;31.30;81.00
10089;DHT22;51898;49.864;8.550;2022-07-24T11:41:04;31.60;80.40
10089;DHT22;51898;49.864;8.550;2022-07-24T11:44:06;31.70;79.20
10089;DHT22;51898;49.864;8.550;2022-07-24T11:47:13;31.80;78.30
10089;DHT22;51898;49.864;8.550;2022-07-24T11:50:14;31.90;77.70
10089;DHT22;51898;49.864;8.550;2022-07-24T11:53:16;31.80;77.40
10089;DHT22;51898;49.864;8.550;2022-07-24T11:56:18;31.90;75.80
10089;DHT22;51898;49.864;8.550;2022-07-24T11:59:24;31.70;74.90
10089;DHT22;51898;49.864;8.550;2022-07-24T12:02:26;31.80;74.10
10089;DHT22;51898;49.864;8.550;2022-07-24T12:05:35;31.90;72.00
10089;DHT22;51898;49.864;8.550;2022-07-24T12:08:36;32.10;69.70
10089;DHT22;51898;49.864;8.550;2022-07-24T12:11:38;32.30;70.90
10089;DHT22;51898;49.864;8.550;2022-07-24T12:14:40;32.40;68.40
10089;DHT22;51898;49.864;8.550;2022-07-24T12:18:01;32.30;68.60
10089;DHT22;51898;49.864;8.550;2022-07-24T12:21:03;32.30;69.30
10089;DHT22;51898;49.864;8.550;2022-07-24T12:24:06;32.40;68.00
10089;DHT22;51898;49.864;8.550;2022-07-24T12:27:08;32.60;67.20
10089;DHT22;51898;49.864;8.550;2022-07-24T12:30:23;32.60;65.70
10089;DHT22;51898;49.864;8.550;2022-07-24T12:33:27;32.70;63.80
10089;DHT22;51898;49.864;8.550;2022-07-24T12:36:31;32.80;64.80
10089;DHT22;51898;49.864;8.550;2022-07-24T12:39:33;33.00;65.00
10089;DHT22;51898;49.864;8.550;2022-07-24T12:42:35;33.00;63.90
10089;DHT22;51898;49.864;8.550;2022-07-24T12:45:37;33.00;65.30
10089;DHT22;51898;49.864;8.550;2022-07-24T12:48:39;33.10;65.40
10089;DHT22;51898;49.864;8.550;2022-07-24T12:54:52;33.30;65.40
10089;DHT22;51898;49.864;8.550;2022-07-24T12:58:22;33.30;64.90
10089;DHT22;51898;49.864;8.550;2022-07-24T13:01:50;33.50;64.70
10089;DHT22;51898;49.864;8.550;2022-07-24T13:04:54;33.50;64.10
10089;DHT22;51898;49.864;8.550;2022-07-24T13:07:56;33.10;64.40
10089;DHT22;51898;49.864;8.550;2022-07-24T13:10:57;32.80;64.30
10089;DHT22;51898;49.864;8.550;2022-07-24T13:13:59;33.00;63.10
10089;DHT22;51898;49.864;8.550;2022-07-24T13:17:09;33.00;63.00
10089;DHT22;51898;49.864;8.550;2022-07-24T13:20:12;33.20;64.10
10089;DHT22;51898;49.864;8.550;2022-07-24T13:23:13;33.50;64.10
10089;DHT22;51898;49.864;8.550;2022-07-24T13:26:15;33.70;63.10
10089;DHT22;51898;49.864;8.550;2022-07-24T13:29:17;33.70;63.20
10089;DHT22;51898;49.864;8.550;2022-07-24T13:32:19;33.90;62.80
10089;DHT22;51898;49.864;8.550;2022-07-24T13:35:23;34.10;62.20
10089;DHT22;51898;49.864;8.550;2022-07-24T13:38:26;34.00;60.90
10089;DHT22;51898;49.864;8.550;2022-07-24T13:41:28;34.00;61.50
10089;DHT22;51898;49.864;8.550;2022-07-24T13:44:30;33.90;60.60
10089;DHT22;51898;49.864;8.550;2022-07-24T13:47:31;33.30;59.90
10089;DHT22;51898;49.864;8.550;2022-07-24T13:50:33;33.20;60.50
10089;DHT22;51898;49.864;8.550;2022-07-24T13:53:35;33.50;61.70
10089;DHT22;51898;49.864;8.550;2022-07-24T13:56:38;33.50;60.90
10089;DHT22;51898;49.864;8.550;2022-07-24T13:59:43;33.60;60.50
10089;DHT22;51898;49.864;8.550;2022-07-24T14:02:45;33.60;60.80
10089;DHT22;51898;49.864;8.550;2022-07-24T14:05:46;33.80;60.30
10089;DHT22;51898;49.864;8.550;2022-07-24T14:08:48;34.10;60.30
10089;DHT22;51898;49.864;8.550;2022-07-24T14:11:50;34.20;59.60
10089;DHT22;51898;49.864;8.550;2022-07-24T14:14:52;33.90;59.30
10089;DHT22;51898;49.864;8.550;2022-07-24T14:17:54;33.80;59.50
10089;DHT22;51898;49.864;8.550;2022-07-24T14:20:56;34.00;60.40
10089;DHT22;51898;49.864;8.550;2022-07-24T14:23:57;34.40;59.70
10089;DHT22;51898;49.864;8.550;2022-07-24T14:26:59;34.40;58.90
10089;DHT22;51898;49.864;8.550;2022-07-24T14:30:03;34.60;58.70
10089;DHT22;51898;49.864;8.550;2022-07-24T14:33:06;34.80;58.20
10089;DHT22;51898;49.864;8.550;2022-07-24T14:36:08;34.80;58.00
10089;DHT22;51898;49.864;8.550;2022-07-24T14:39:09;34.50;57.30
10089;DHT22;51898;49.864;8.550;2022-07-24T14:42:11;34.00;57.60
10089;DHT22;51898;49.864;8.550;2022-07-24T14:45:13;33.80;58.30
10089;DHT22;51898;49.864;8.550;2022-07-24T14:48:14;33.90;58.70
10089;DHT22;51898;49.864;8.550;2022-07-24T14:51:18;33.90;58.50
10089;DHT22;51898;49.864;8.550;2022-07-24T14:54:20;33.90;58.90
10089;DHT22;51898;49.864;8.550;2022-07-24T14:57:22;34.00;58.50
10089;DHT22;51898;49.864;8.550;2022-07-24T15:00:24;34.20;58.80
10089;DHT22;51898;49.864;8.550;2022-07-24T15:03:26;34.40;58.20
10089;DHT22;51898;49.864;8.550;2022-07-24T15:06:28;34.10;58.20
10089;DHT22;51898;49.864;8.550;2022-07-24T15:09:30;34.20;59.00
10089;DHT22;51898;49.864;8.550;2022-07-24T15:12:32;34.60;58.40
10089;DHT22;51898;49.864;8.550;2022-07-24T15:15:33;35.10;58.00
10089;DHT22;51898;49.864;8.550;2022-07-24T15:18:35;35.40;57.50
10089;DHT22;51898;49.864;8.550;2022-07-24T15:21:38;35.00;57.40
10089;DHT22;51898;49.864;8.550;2022-07-24T15:24:43;34.90;57.80
10089;DHT22;51898;49.864;8.550;2022-07-24T15:27:44;35.00;57.10
10089;DHT22;51898;49.864;8.550;2022-07-24T15:30:47;34.90;56.90
10089;DHT22;51898;49.864;8.550;2022-07-24T15:33:49;35.10;57.30
10089;DHT22;51898;49.864;8.550;2022-07-24T15:36:51;35.20;56.80
10089;DHT22;51898;49.864;8.550;2022-07-24T15:39:52;35.40;56.90
10089;DHT22;51898;49.864;8.550;2022-07-24T15:42:55;35.50;56.30
10089;DHT22;51898;49.864;8.550;2022-07-24T15:45:56;35.60;56.50
10089;DHT22;51898;49.864;8.550;2022-07-24T15:48:59;35.50;56.60
10089;DHT22;51898;49.864;8.550;2022-07-24T15:52:05;35.40;56.40
10089;DHT22;51898;49.864;8.550;2022-07-24T15:55:07;35.90;56.10
10089;DHT22;51898;49.864;8.550;2022-07-24T15:58:08;36.40;55.50
10089;DHT22;51898;49.864;8.550;2022-07-24T16:01:13;36.60;55.60
10089;DHT22;51898;49.864;8.550;2022-07-24T16:04:34;36.90;55.30
10089;DHT22;51898;49.864;8.550;2022-07-24T16:07:36;37.20;55.30
10089;DHT22;51898;49.864;8.550;2022-07-24T16:10:38;37.30;55.30
10089;DHT22;51898;49.864;8.550;2022-07-24T16:13:39;37.60;55.40
10089;DHT22;51898;49.864;8.550;2022-07-24T16:16:41;38.00;54.00
10089;DHT22;51898;49.864;8.550;2022-07-24T16:19:43;38.00;53.60
10089;DHT22;51898;49.864;8.550;2022-07-24T16:22:45;38.00;53.60
10089;DHT22;51898;49.864;8.550;2022-07-24T16:25:47;37.60;54.10
10089;DHT22;51898;49.864;8.550;2022-07-24T16:28:49;37.50;53.50
10089;DHT22;51898;49.864;8.550;2022-07-24T16:31:50;37.70;53.20
10089;DHT22;51898;49.864;8.550;2022-07-24T16:34:52;38.00;53.10
10089;DHT22;51898;49.864;8.550;2022-07-24T16:37:54;38.30;52.70
10089;DHT22;51898;49.864;8.550;2022-07-24T16:40:55;38.00;53.00
10089;DHT22;51898;49.864;8.550;2022-07-24T16:43:57;38.00;52.90
10089;DHT22;51898;49.864;8.550;2022-07-24T16:46:59;37.70;52.50
10089;DHT22;51898;49.864;8.550;2022-07-24T16:50:00;37.60;52.20
10089;DHT22;51898;49.864;8.550;2022-07-24T16:53:03;37.80;51.50
10089;DHT22;51898;49.864;8.550;2022-07-24T16:56:05;37.80;51.60
10089;DHT22;51898;49.864;8.550;2022-07-24T16:59:09;37.90;52.40
10089;DHT22;51898;49.864;8.550;2022-07-24T17:02:11;38.10;52.60
10089;DHT22;51898;49.864;8.550;2022-07-24T17:05:13;38.00;51.90
10089;DHT22;51898;49.864;8.550;2022-07-24T17:08:21;38.20;51.10
10089;DHT22;51898;49.864;8.550;2022-07-24T17:11:24;38.60;50.50
10089;DHT22;51898;49.864;8.550;2022-07-24T17:14:26;38.60;50.70
10089;DHT22;51898;49.864;8.550;2022-07-24T17:17:29;38.70;49.70
10089;DHT22;51898;49.864;8.550;2022-07-24T17:20:50;38.90;49.20
10089;DHT22;51898;49.864;8.550;2022-07-24T17:23:52;39.30;48.50
10089;DHT22;51898;49.864;8.550;2022-07-24T17:26:54;39.50;47.90
10089;DHT22;51898;49.864;8.550;2022-07-24T17:29:55;39.50;47.80
10089;DHT22;51898;49.864;8.550;2022-07-24T17:32:58;39.70;47.20
10089;DHT22;51898;49.864;8.550;2022-07-24T17:35:59;39.70;46.80
10089;DHT22;51898;49.864;8.550;2022-07-24T17:39:01;40.10;46.70
10089;DHT22;51898;49.864;8.550;2022-07-24T17:42:03;40.30;47.10
10089;DHT22;51898;49.864;8.550;2022-07-24T17:45:05;40.50;46.80
10089;DHT22;51898;49.864;8.550;2022-07-24T17:48:07;40.70;47.10
10089;DHT22;51898;49.864;8.550;2022-07-24T17:51:09;40.30;46.70
10089;DHT22;51898;49.864;8.550;2022-07-24T17:54:11;39.90;46.90
10089;DHT22;51898;49.864;8.550;2022-07-24T17:57:13;40.00;47.20
10089;DHT22;51898;49.864;8.550;2022-07-24T18:00:15;39.80;47.30
10089;DHT22;51898;49.864;8.550;2022-07-24T18:03:20;39.60;48.00
10089;DHT22;51898;49.864;8.550;2022-07-24T18:06:21;39.60;47.70
10089;DHT22;51898;49.864;8.550;2022-07-24T18:09:23;39.90;47.80
10089;DHT22;51898;49.864;8.550;2022-07-24T18:12:25;40.00;47.50
10089;DHT22;51898;49.864;8.550;2022-07-24T18:15:27;39.60;47.40
10089;DHT22;51898;49.864;8.550;2022-07-24T18:18:28;39.60;47.30
10089;DHT22;51898;49.864;8.550;2022-07-24T18:21:30;39.50;47.50
10089;DHT22;51898;49.864;8.550;2022-07-24T18:24:32;39.30;47.50
10089;DHT22;51898;49.864;8.550;2022-07-24T18:27:33;39.10;47.70
10089;DHT22;51898;49.864;8.550;2022-07-24T18:30:35;38.90;47.60
10089;DHT22;51898;49.864;8.550;2022-07-24T18:33:37;38.50;47.80
10089;DHT22;51898;49.864;8.550;2022-07-24T18:36:40;37.70;48.10
10089;DHT22;51898;49.864;8.550;2022-07-24T18:39:42;36.60;48.70
10089;DHT22;51898;49.864;8.550;2022-07-24T18:42:43;35.90;49.20
10089;DHT22;51898;49.864;8.550;2022-07-24T18:45:45;35.10;49.80
10089;DHT22;51898;49.864;8.550;2022-07-24T18:48:47;34.40;50.70
10089;DHT22;51898;49.864;8.550;2022-07-24T18:51:49;33.60;52.10
10089;DHT22;51898;49.864;8.550;2022-07-24T18:54:52;33.10;52.70
10089;DHT22;51898;49.864;8.550;2022-07-24T18:57:54;32.60;53.20
10089;DHT22;51898;49.864;8.550;2022-07-24T19:00:57;32.20;53.50
10089;DHT22;51898;49.864;8.550;2022-07-24T19:03:59;31.80;53.60
10089;DHT22;51898;49.864;8.550;2022-07-24T19:07:01;31.50;54.20
10089;DHT22;51898;49.864;8.550;2022-07-24T19:10:03;31.10;55.60
10089;DHT22;51898;49.864;8.550;2022-07-24T19:13:05;30.90;56.90
10089;DHT22;51898;49.864;8.550;2022-07-24T19:16:07;30.50;57.90
10089;DHT22;51898;49.864;8.550;2022-07-24T19:19:09;30.30;58.70
10089;DHT22;51898;49.864;8.550;2022-07-24T19:22:11;30.00;59.20
10089;DHT22;51898;49.864;8.550;2022-07-24T19:25:13;29.70;61.30
10089;DHT22;51898;49.864;8.550;2022-07-24T19:28:21;29.60;62.00
10089;DHT22;51898;49.864;8.550;2022-07-24T19:31:22;29.40;62.90